Time;durP1;ratioP1;P1;durP2;ratioP2;P2;SDS_P1;SDS_P2;PMS_P1;PMS_P2;Temp;Humidity;BMP_temperature;BMP_pressure;BME280_temperature;BME280_humidity;BME280_pressure;Samples;Min_cycle;Max_cycle;Signal;HPM_P1;HPM_P2
2022/02/09 00:03:38;;;;;;;1.98;1.77;;;;;;;;;;5058473;28;20527;-68
2022/02/09 00:06:23;;;;;;;2.55;2.28;;;;;;;;;;5053490;28;20045;-69
2022/02/09 00:08:49;;;;;;;1.98;1.83;;;;;;;;;;5061084;28;20132;-68
2022/02/09 00:11:25;;;;;;;1.90;1.80;;;;;;;;;;5059182;28;20490;-68
2022/02/09 00:13:56;;;;;;;2.67;2.08;;;;;;;;;;5054429;28;20067;-69
2022/02/09 00:19:07;;;;;;;2.30;2.10;;;;;;;;;;5057697;28;20067;-68
2022/02/09 00:21:52;;;;;;;2.38;2.17;;;;;;;;;;5056687;28;20116;-68
2022/02/09 00:34:57;;;;;;;2.05;1.95;;;;;;;;;;5051483;28;20040;-68
2022/02/09 00:38:20;;;;;;;2.88;1.85;;;;;;;;;;5059434;28;20029;-68
2022/02/09 01:39:51;;;;;;;2.30;2.10;;;;;;;;;;5059754;28;20029;-68
2022/02/09 01:55:54;;;;;;;2.67;2.47;;;;;;;;;;5093458;28;20482;-68
2022/02/09 01:58:20;;;;;;;2.95;2.75;;;;;;;;;;5051783;28;20034;-68
2022/02/09 02:00:46;;;;;;;3.08;2.78;;;;;;;;;;5058765;28;20079;-68
2022/02/09 02:03:13;;;;;;;3.53;3.22;;;;;;;;;;5058437;28;20055;-68
2022/02/09 02:05:39;;;;;;;3.50;3.20;;;;;;;;;;5058829;28;20021;-67
2022/02/09 02:08:07;;;;;;;2.88;2.72;;;;;;;;;;5076488;28;20031;-67
2022/02/09 02:18:05;;;;;;;3.38;3.17;;;;;;;;;;5060692;28;20111;-69
2022/02/09 02:21:17;;;;;;;3.05;2.85;;;;;;;;;;5058834;28;20633;-69
2022/02/09 02:28:45;;;;;;;3.50;3.25;;;;;;;;;;5062091;28;20079;-69
2022/02/09 02:57:11;;;;;;;3.42;3.13;;;;;;;;;;5062474;28;20577;-69
2022/02/09 03:18:07;;;;;;;2.80;2.55;;;;;;;;;;5060930;28;20032;-68
2022/02/09 03:20:41;;;;;;;2.80;2.60;;;;;;;;;;5059163;28;20119;-68
2022/02/09 03:26:05;;;;;;;3.60;3.35;;;;;;;;;;5056238;28;20028;-68
2022/02/09 03:42:24;;;;;;;2.97;2.78;;;;;;;;;;5056475;28;20409;-68
2022/02/09 03:43:00;;;;;;;2.63;2.42;;;;;;;;;;5061524;28;20032;-69
2022/02/09 03:50:53;;;;;;;3.05;2.85;;;;;;;;;;5060254;28;20036;-68
2022/02/09 03:58:19;;;;;;;2.35;2.25;;;;;;;;;;5059974;28;20029;-67
2022/02/09 04:00:46;;;;;;;2.70;2.42;;;;;;;;;;5056759;28;20430;-68
2022/02/09 04:03:21;;;;;;;2.55;2.35;;;;;;;;;;5060387;28;20467;-67
2022/02/09 04:05:49;;;;;;;2.55;2.38;;;;;;;;;;5071552;28;20557;-67
2022/02/09 04:08:17;;;;;;;3.05;2.80;;;;;;;;;;5059276;28;20379;-67
2022/02/09 04:10:50;;;;;;;2.88;2.67;;;;;;;;;;5058774;28;20398;-67
2022/02/09 04:13:24;;;;;;;4.43;3.00;;;;;;;;;;5061225;28;20040;-67
2022/02/09 04:18:33;;;;;;;2.78;2.53;;;;;;;;;;5057885;28;20492;-69
2022/02/09 04:37:15;;;;;;;2.60;2.40;;;;;;;;;;5066003;28;20048;-67
2022/02/09 04:39:51;;;;;;;3.00;2.80;;;;;;;;;;5070034;28;20033;-67
2022/02/09 04:43:06;;;;;;;2.97;2.78;;;;;;;;;;5067489;28;20058;-67
2022/02/09 04:48:00;;;;;;;2.00;1.90;;;;;;;;;;5066833;28;20484;-67
2022/02/09 04:50:37;;;;;;;2.30;2.10;;;;;;;;;;5067412;28;20032;-67
2022/02/09 04:54:16;;;;;;;2.15;2.05;;;;;;;;;;5066296;28;20583;-67
2022/02/09 04:58:31;;;;;;;3.53;2.00;;;;;;;;;;5067334;28;20066;-67
2022/02/09 05:01:19;;;;;;;2.45;1.85;;;;;;;;;;5066962;28;20020;-66
2022/02/09 05:28:06;;;;;;;2.42;2.20;;;;;;;;;;5055196;28;20410;-67
2022/02/09 05:30:32;;;;;;;2.63;2.42;;;;;;;;;;5055848;28;20025;-67
2022/02/09 05:32:58;;;;;;;2.33;2.13;;;;;;;;;;5054811;28;20459;-67
2022/02/09 05:35:23;;;;;;;2.53;2.35;;;;;;;;;;5056014;28;20033;-67
2022/02/09 05:37:51;;;;;;;2.25;2.05;;;;;;;;;;5053918;28;20028;-67
2022/02/09 05:40:16;;;;;;;2.58;2.38;;;;;;;;;;5055430;28;20025;-67
2022/02/09 05:42:42;;;;;;;2.28;1.95;;;;;;;;;;5055460;28;20032;-67
2022/02/09 05:45:10;;;;;;;2.70;2.50;;;;;;;;;;5054996;28;20025;-67
2022/02/09 05:50:29;;;;;;;2.10;1.92;;;;;;;;;;5055495;28;20048;-67
2022/02/09 05:53:09;;;;;;;;;;;;;;;;;;5071431;28;20028;-68
2022/02/09 05:58:12;;;;;;;2.25;2.08;;;;;;;;;;5055418;28;20032;-67
2022/02/09 06:00:47;;;;;;;2.47;2.28;;;;;;;;;;5055348;28;20107;-67
2022/02/09 06:03:13;;;;;;;2.75;2.55;;;;;;;;;;5055440;28;20033;-67
2022/02/09 06:05:38;;;;;;;2.50;2.30;;;;;;;;;;5055347;28;20212;-68
2022/02/09 06:08:04;;;;;;;2.97;2.70;;;;;;;;;;5055048;28;20057;-68
2022/02/09 06:10:32;;;;;;;2.78;2.58;;;;;;;;;;5055299;28;20452;-68
2022/02/09 06:20:58;;;;;;;2.85;2.65;;;;;;;;;;5054698;28;20029;-68
2022/02/09 06:23:26;;;;;;;3.50;3.05;;;;;;;;;;5054508;28;20024;-68
2022/02/09 06:25:51;;;;;;;2.55;2.35;;;;;;;;;;5054557;28;20025;-68
2022/02/09 06:28:17;;;;;;;3.60;3.35;;;;;;;;;;5054550;28;20086;-68
2022/02/09 06:30:42;;;;;;;3.40;3.08;;;;;;;;;;5054460;28;20021;-68
2022/02/09 06:33:08;;;;;;;3.55;3.28;;;;;;;;;;5054514;28;20017;-68
2022/02/09 06:35:33;;;;;;;3.85;3.55;;;;;;;;;;5053703;28;20483;-68
2022/02/09 06:38:00;;;;;;;3.53;3.05;;;;;;;;;;5054092;28;20017;-68
2022/02/09 06:40:26;;;;;;;3.90;3.60;;;;;;;;;;5054182;28;20116;-68
2022/02/09 06:42:51;;;;;;;3.70;3.45;;;;;;;;;;5054138;28;20523;-68
2022/02/09 06:47:42;;;;;;;4.05;3.58;;;;;;;;;;5054073;28;20028;-68
2022/02/09 06:50:13;;;;;;;3.88;3.58;;;;;;;;;;5052834;28;20047;-68
2022/02/09 06:52:42;;;;;;;;;;;;;;;;;;5053221;28;20505;-68
2022/02/09 07:00:16;;;;;;;3.83;3.53;;;;;;;;;;5054051;28;20029;-68
2022/02/09 07:02:42;;;;;;;4.45;3.55;;;;;;;;;;5053808;28;20071;-68
2022/02/09 07:05:08;;;;;;;3.95;3.58;;;;;;;;;;5052484;28;20021;-68
2022/02/09 07:07:33;;;;;;;3.85;3.55;;;;;;;;;;5052513;28;20028;-68
2022/02/09 07:09:59;;;;;;;4.90;3.85;;;;;;;;;;5053586;28;20497;-68
2022/02/09 07:12:24;;;;;;;4.78;3.38;;;;;;;;;;5052293;28;20036;-68
2022/02/09 07:14:50;;;;;;;4.72;4.28;;;;;;;;;;5053165;28;20029;-67
2022/02/09 07:17:15;;;;;;;4.57;4.18;;;;;;;;;;5053216;28;20051;-68
2022/02/09 07:19:43;;;;;;;4.18;3.85;;;;;;;;;;5052792;28;20037;-68
2022/02/09 07:22:13;;;;;;;4.35;3.95;;;;;;;;;;5053695;28;20079;-68
2022/02/09 07:24:39;;;;;;;4.30;3.90;;;;;;;;;;5069381;28;20138;-68
2022/02/09 07:27:24;;;;;;;5.05;4.55;;;;;;;;;;5052417;28;20127;-68
2022/02/09 07:29:50;;;;;;;4.63;4.13;;;;;;;;;;5053204;28;20071;-68
2022/02/09 07:32:15;;;;;;;5.32;4.30;;;;;;;;;;5053200;28;20029;-68
2022/02/09 07:34:41;;;;;;;3.97;3.65;;;;;;;;;;5053038;28;20111;-68
2022/02/09 07:37:06;;;;;;;5.30;4.80;;;;;;;;;;5051272;28;20451;-68
2022/02/09 07:39:33;;;;;;;5.25;4.60;;;;;;;;;;5053191;28;20013;-68
2022/02/09 07:41:58;;;;;;;5.75;5.03;;;;;;;;;;5068541;28;20029;-68
2022/02/09 07:44:45;;;;;;;4.82;4.43;;;;;;;;;;5051963;28;20478;-68
2022/02/09 07:47:34;;;;;;;5.65;5.07;;;;;;;;;;5052317;28;20068;-68
2022/02/09 07:52:53;;;;;;;5.07;4.63;;;;;;;;;;5053211;28;20037;-68
2022/02/09 07:55:19;;;;;;;5.18;4.68;;;;;;;;;;5053139;28;20119;-68
2022/02/09 07:57:44;;;;;;;5.65;4.95;;;;;;;;;;5052856;28;20117;-68
2022/02/09 08:00:13;;;;;;;5.07;4.25;;;;;;;;;;5051865;28;20033;-68
2022/02/09 08:02:41;;;;;;;5.80;4.93;;;;;;;;;;5052878;28;20155;-68
2022/02/09 08:05:07;;;;;;;5.45;4.90;;;;;;;;;;5052849;28;20511;-69
2022/02/09 08:07:32;;;;;;;5.82;5.22;;;;;;;;;;5052935;28;20033;-68
2022/02/09 08:10:00;;;;;;;5.00;4.50;;;;;;;;;;5052830;28;20025;-68
2022/02/09 08:21:04;;;;;;;4.75;4.03;;;;;;;;;;5052856;28;20109;-68
2022/02/09 08:33:42;;;;;;;7.97;5.57;;;;;;;;;;5052680;28;20029;-69
2022/02/09 08:36:07;;;;;;;7.60;6.85;;;;;;;;;;5052374;28;20024;-68
2022/02/09 08:38:33;;;;;;;8.45;7.35;;;;;;;;;;5067731;28;20036;-68
2022/02/09 08:40:59;;;;;;;7.43;6.65;;;;;;;;;;5052445;28;20075;-68
2022/02/09 08:43:24;;;;;;;7.88;6.82;;;;;;;;;;5051345;28;20021;-68
2022/02/09 08:45:50;;;;;;;8.10;6.65;;;;;;;;;;5052456;28;20033;-68
2022/02/09 08:48:20;;;;;;;8.50;7.72;;;;;;;;;;5052534;28;20433;-68
2022/02/09 08:50:49;;;;;;;8.45;7.10;;;;;;;;;;5052567;28;20029;-68
2022/02/09 08:53:15;;;;;;;9.43;7.88;;;;;;;;;;5052518;28;20035;-68
2022/02/09 08:55:40;;;;;;;8.95;7.95;;;;;;;;;;5052452;28;20115;-68
2022/02/09 08:58:05;;;;;;;8.40;7.55;;;;;;;;;;5051982;28;20521;-68
2022/02/09 09:00:35;;;;;;;9.73;7.00;;;;;;;;;;5056095;28;20032;-68
2022/02/09 09:03:21;;;;;;;8.00;6.85;;;;;;;;;;5056022;28;20017;-68
2022/02/09 09:05:50;;;;;;;10.70;7.53;;;;;;;;;;5054723;28;20021;-68
2022/02/09 09:19:12;;;;;;;8.07;7.30;;;;;;;;;;5055677;28;20383;-68
2022/02/09 10:05:39;;;;;;;8.25;7.25;;;;;;;;;;5054988;28;20099;-68
2022/02/09 10:32:58;;;;;;;16.55;9.20;;;;;;;;;;5054615;28;20119;-68
2022/02/09 10:35:33;;;;;;;13.82;8.60;;;;;;;;;;5054263;28;20135;-68
2022/02/09 10:38:16;;;;;;;10.88;8.05;;;;;;;;;;5054052;28;20505;-68
2022/02/09 10:40:47;;;;;;;9.82;8.07;;;;;;;;;;5054281;28;20025;-68
2022/02/09 10:43:20;;;;;;;11.18;8.57;;;;;;;;;;5054213;28;20028;-68
2022/02/09 10:45:48;;;;;;;11.07;7.85;;;;;;;;;;5054113;28;20029;-68
2022/02/09 10:48:33;;;;;;;10.73;8.18;;;;;;;;;;5052696;28;20083;-68
2022/02/09 10:51:20;;;;;;;9.77;6.65;;;;;;;;;;5054055;28;20111;-68
2022/02/09 10:54:06;;;;;;;10.43;8.50;;;;;;;;;;5069418;28;20029;-68
2022/02/09 10:56:33;;;;;;;9.68;8.55;;;;;;;;;;5053190;28;20175;-68
2022/02/09 10:59:03;;;;;;;9.85;7.85;;;;;;;;;;5053811;28;20426;-68
2022/02/09 11:01:28;;;;;;;8.57;7.38;;;;;;;;;;5053885;28;20104;-68
2022/02/09 11:03:57;;;;;;;11.05;8.20;;;;;;;;;;5053737;28;20056;-68
2022/02/09 11:06:27;;;;;;;12.00;8.82;;;;;;;;;;5052459;28;20068;-68
2022/02/09 11:08:52;;;;;;;7.53;6.13;;;;;;;;;;5053792;28;20489;-68
2022/02/09 11:11:18;;;;;;;10.73;7.50;;;;;;;;;;5053649;28;20025;-68
2022/02/09 11:13:44;;;;;;;7.32;6.03;;;;;;;;;;5052319;28;20032;-68
2022/02/09 11:16:12;;;;;;;7.65;6.40;;;;;;;;;;5052995;28;20514;-68
2022/02/09 11:18:38;;;;;;;8.60;6.30;;;;;;;;;;5053513;28;20032;-68
2022/02/09 11:21:05;;;;;;;7.03;6.30;;;;;;;;;;5053344;28;20025;-68
2022/02/09 11:23:37;;;;;;;7.47;6.30;;;;;;;;;;5053474;28;20041;-68
2022/02/09 11:26:10;;;;;;;6.72;5.68;;;;;;;;;;5053321;28;20053;-68
2022/02/09 11:28:41;;;;;;;12.30;7.10;;;;;;;;;;5053482;28;20090;-68
2022/02/09 11:31:18;;;;;;;6.70;6.00;;;;;;;;;;5053511;28;20028;-68
2022/02/09 11:34:00;;;;;;;7.75;6.10;;;;;;;;;;5053327;28;20116;-68
2022/02/09 11:36:43;;;;;;;8.15;6.53;;;;;;;;;;5053087;28;20041;-68
2022/02/09 11:39:19;;;;;;;6.15;5.38;;;;;;;;;;5052039;28;20442;-68
2022/02/09 11:42:08;;;;;;;5.15;4.60;;;;;;;;;;5068802;28;20024;-68
2022/02/09 11:45:10;;;;;;;6.55;5.35;;;;;;;;;;5053254;28;20039;-68
2022/02/09 12:09:25;;;;;;;6.78;5.97;;;;;;;;;;5053134;28;20502;-68
2022/02/09 12:11:52;;;;;;;6.22;5.15;;;;;;;;;;5051839;28;20075;-68
2022/02/09 12:14:36;;;;;;;6.22;5.65;;;;;;;;;;5052733;28;20021;-68
2022/02/09 12:17:28;;;;;;;7.75;5.40;;;;;;;;;;5051324;28;20051;-69
2022/02/09 12:20:04;;;;;;;5.97;5.47;;;;;;;;;;5053196;28;20052;-68
2022/02/09 12:22:40;;;;;;;6.53;5.90;;;;;;;;;;5052899;28;20035;-68
2022/02/09 12:25:05;;;;;;;5.95;5.35;;;;;;;;;;5051662;28;20033;-69
2022/02/09 12:27:31;;;;;;;6.30;5.68;;;;;;;;;;5052821;28;20455;-68
2022/02/09 12:30:08;;;;;;;5.70;5.03;;;;;;;;;;5052750;28;20025;-68
2022/02/09 12:32:35;;;;;;;5.32;4.82;;;;;;;;;;5068263;28;20060;-68
2022/02/09 12:35:05;;;;;;;7.05;5.47;;;;;;;;;;5056624;28;20013;-69
2022/02/09 12:37:31;;;;;;;;;;;;;;;;;;5056774;28;20037;-68
2022/02/09 12:39:58;;;;;;;7.68;5.53;;;;;;;;;;5056506;28;20372;-68
2022/02/09 12:42:43;;;;;;;6.78;5.47;;;;;;;;;;5056494;28;20030;-68
2022/02/09 12:45:09;;;;;;;7.30;5.80;;;;;;;;;;5055971;28;20029;-68
2022/02/09 12:47:37;;;;;;;7.90;5.90;;;;;;;;;;5055101;28;20397;-68
2022/02/09 12:50:05;;;;;;;10.30;7.03;;;;;;;;;;5056288;28;20041;-69
2022/02/09 12:52:31;;;;;;;7.13;6.40;;;;;;;;;;5056237;28;20025;-68
2022/02/09 12:55:04;;;;;;;9.48;8.27;;;;;;;;;;5056175;28;20029;-68
2022/02/09 12:57:33;;;;;;;11.68;8.20;;;;;;;;;;5071407;28;20035;-68
2022/02/09 12:59:59;;;;;;;8.68;7.75;;;;;;;;;;5056154;28;20052;-68
2022/02/09 13:02:39;;;;;;;10.23;7.78;;;;;;;;;;5054857;28;20505;-68
2022/02/09 13:05:04;;;;;;;11.02;8.35;;;;;;;;;;5056104;28;20061;-69
2022/02/09 13:07:30;;;;;;;8.80;7.90;;;;;;;;;;5055899;28;20068;-69
2022/02/09 13:09:56;;;;;;;12.57;8.85;;;;;;;;;;5071494;28;20380;-69
2022/02/09 13:12:26;;;;;;;13.50;9.18;;;;;;;;;;5055807;28;20025;-69
2022/02/09 13:14:52;;;;;;;9.00;6.53;;;;;;;;;;5071303;28;20029;-69
2022/02/09 13:17:38;;;;;;;11.10;8.20;;;;;;;;;;5054258;28;20411;-68
2022/02/09 13:26:21;;;;;;;10.30;7.18;;;;;;;;;;5055819;28;20112;-68
2022/02/09 14:11:00;;;;;;;14.40;9.52;;;;;;;;;;5054265;28;20391;-71
2022/02/09 14:13:50;;;;;;;13.40;10.10;;;;;;;;;;5055170;28;20037;-71
2022/02/09 14:52:18;;;;;;;11.32;8.10;;;;;;;;;;5053849;28;20033;-72
2022/02/09 14:57:15;;;;;;;10.85;7.18;;;;;;;;;;5053422;28;20546;-71
2022/02/09 14:59:32;;;;;;;8.27;6.40;;;;;;;;;;5050683;28;20049;-72
2022/02/09 15:02:01;;;;;;;9.18;6.85;;;;;;;;;;5054073;28;20040;-72
2022/02/09 15:04:36;;;;;;;10.10;8.10;;;;;;;;;;5052719;28;20431;-72
2022/02/09 15:07:24;;;;;;;9.82;7.10;;;;;;;;;;5052701;28;20471;-72
2022/02/09 15:10:01;;;;;;;9.80;7.30;;;;;;;;;;5069212;28;20503;-71
2022/02/09 15:12:32;;;;;;;13.38;7.53;;;;;;;;;;5053713;28;20458;-72
2022/02/09 15:17:41;;;;;;;8.10;6.63;;;;;;;;;;5051921;28;20041;-72
2022/02/09 15:22:56;;;;;;;8.85;6.45;;;;;;;;;;5052374;28;20127;-72
2022/02/09 15:25:22;;;;;;;5.25;4.78;;;;;;;;;;5053487;28;20100;-72
2022/02/09 15:27:53;;;;;;;7.22;5.75;;;;;;;;;;5053442;28;20376;-72
2022/02/09 15:30:18;;;;;;;6.68;4.32;;;;;;;;;;5053124;28;20041;-72
2022/02/09 15:32:49;;;;;;;7.18;5.53;;;;;;;;;;5053330;28;20025;-72
2022/02/09 15:35:37;;;;;;;7.75;5.13;;;;;;;;;;5052181;28;20474;-72
2022/02/09 15:38:15;;;;;;;8.98;6.07;;;;;;;;;;5053251;28;20485;-72
2022/02/09 15:41:03;;;;;;;8.30;6.35;;;;;;;;;;5052175;28;20471;-72
2022/02/09 16:23:57;;;;;;;15.60;10.48;;;;;;;;;;5057504;28;20057;-72
2022/02/09 16:45:33;;;;;;;9.73;6.40;;;;;;;;;;5036765;28;20179;-72
2022/02/09 16:48:03;;;;;;;18.38;12.15;;;;;;;;;;5054506;28;20107;-72
2022/02/09 16:50:37;;;;;;;;;;;;;;;;;;5055917;28;20032;-72
2022/02/09 16:56:22;;;;;;;15.32;9.15;;;;;;;;;;5044044;28;20068;-72
2022/02/09 17:19:58;;;;;;;8.40;6.45;;;;;;;;;;5055032;28;20044;-72
2022/02/09 17:22:23;;;;;;;9.68;6.28;;;;;;;;;;5054533;28;20033;-72
2022/02/09 17:24:49;;;;;;;8.60;6.18;;;;;;;;;;5055688;28;20036;-72
2022/02/09 17:27:18;;;;;;;7.05;5.53;;;;;;;;;;5054522;28;20047;-72
2022/02/09 17:32:22;;;;;;;8.73;6.80;;;;;;;;;;5054228;28;20055;-72
2022/02/09 17:35:00;;;;;;;9.20;7.32;;;;;;;;;;5055695;28;20036;-72
2022/02/09 17:53:49;;;;;;;11.82;8.52;;;;;;;;;;5054089;28;20033;-72
2022/02/09 17:56:22;;;;;;;14.82;10.15;;;;;;;;;;5055223;28;20117;-72
2022/02/09 17:58:50;;;;;;;12.75;8.85;;;;;;;;;;5055713;28;20029;-72
2022/02/09 18:01:16;;;;;;;14.77;9.45;;;;;;;;;;5055378;28;20112;-72
2022/02/09 18:03:42;;;;;;;13.18;8.35;;;;;;;;;;5055130;28;20013;-72
2022/02/09 18:06:22;;;;;;;12.75;8.48;;;;;;;;;;5055264;28;20364;-71
2022/02/09 18:30:09;;;;;;;8.40;6.00;;;;;;;;;;5054990;28;20068;-71
2022/02/09 18:33:06;;;;;;;8.60;6.03;;;;;;;;;;5053286;28;20132;-71
2022/02/09 18:43:34;;;;;;;18.60;10.45;;;;;;;;;;5054494;28;20426;-69
2022/02/09 19:00:33;;;;;;;18.15;11.65;;;;;;;;;;5034475;28;20040;-72
2022/02/09 19:05:32;;;;;;;15.32;10.43;;;;;;;;;;5054921;28;20029;-71
2022/02/09 19:08:13;;;;;;;13.70;9.52;;;;;;;;;;5053960;28;20059;-70
2022/02/09 19:32:06;;;;;;;20.13;14.30;;;;;;;;;;5054320;28;20033;-70
2022/02/09 19:48:09;;;;;;;11.90;9.40;;;;;;;;;;5051998;28;20411;-70
2022/02/09 19:56:06;;;;;;;15.40;11.27;;;;;;;;;;5053360;28;20040;-70
2022/02/09 19:58:57;;;;;;;14.30;8.93;;;;;;;;;;5052061;28;20475;-70
2022/02/09 20:01:19;;;;;;;10.57;8.15;;;;;;;;;;5052967;28;20041;-70
2022/02/09 20:03:44;;;;;;;11.43;8.55;;;;;;;;;;5052793;28;20063;-70
2022/02/09 20:06:10;;;;;;;13.80;10.27;;;;;;;;;;5053145;28;20013;-70
2022/02/09 20:08:38;;;;;;;16.27;10.05;;;;;;;;;;5052785;28;20143;-69
2022/02/09 20:11:03;;;;;;;14.35;9.98;;;;;;;;;;5052853;28;20467;-70
2022/02/09 20:13:29;;;;;;;11.68;8.63;;;;;;;;;;5052832;28;20037;-70
2022/02/09 20:15:54;;;;;;;12.23;8.63;;;;;;;;;;5051116;28;20045;-70
2022/02/09 20:18:20;;;;;;;13.75;9.02;;;;;;;;;;5053028;28;20033;-70
2022/02/09 20:20:46;;;;;;;13.05;9.68;;;;;;;;;;5051474;28;20030;-70
2022/02/09 20:23:12;;;;;;;16.05;11.05;;;;;;;;;;5052588;28;20556;-70
2022/02/09 20:25:39;;;;;;;15.05;10.30;;;;;;;;;;5052806;28;20081;-70
2022/02/09 20:28:06;;;;;;;18.45;11.70;;;;;;;;;;5052872;28;20040;-70
2022/02/09 20:30:43;;;;;;;21.20;12.57;;;;;;;;;;5052804;28;20479;-70
2022/02/09 20:33:14;;;;;;;18.30;11.02;;;;;;;;;;5051606;28;20033;-70
2022/02/09 20:35:39;;;;;;;;;;;;;;;;;;5053152;28;20025;-70
2022/02/09 20:38:07;;;;;;;18.85;12.40;;;;;;;;;;5052582;28;19913;-70
2022/02/09 20:40:38;;;;;;;20.83;12.95;;;;;;;;;;5051313;28;20487;-70
2022/02/09 20:43:05;;;;;;;20.88;12.30;;;;;;;;;;5067879;28;20398;-70
2022/02/09 20:48:07;;;;;;;38.30;19.17;;;;;;;;;;5052374;28;20098;-70
2022/02/09 20:50:34;;;;;;;44.55;22.88;;;;;;;;;;5068179;28;20475;-70
2022/02/09 20:53:00;;;;;;;49.35;23.67;;;;;;;;;;5051253;28;20080;-70
2022/02/09 20:55:27;;;;;;;44.45;21.88;;;;;;;;;;5055641;28;20495;-70
2022/02/09 20:57:52;;;;;;;37.80;19.58;;;;;;;;;;5056198;28;20060;-70
2022/02/09 21:00:34;;;;;;;47.83;24.35;;;;;;;;;;5055820;28;20064;-70
2022/02/09 21:05:36;;;;;;;47.88;24.27;;;;;;;;;;5056104;28;20021;-74
2022/02/09 21:13:17;;;;;;;26.70;16.08;;;;;;;;;;5056314;28;20112;-73
2022/02/09 21:15:56;;;;;;;24.27;13.80;;;;;;;;;;5055676;28;20068;-73
2022/02/09 21:32:37;;;;;;;23.90;15.20;;;;;;;;;;5056060;28;20021;-73
2022/02/09 21:44:14;;;;;;;27.48;14.90;;;;;;;;;;5056219;28;20115;-70
2022/02/09 21:56:37;;;;;;;35.40;19.88;;;;;;;;;;5055542;28;20468;-73
2022/02/09 21:59:44;;;;;;;32.13;17.92;;;;;;;;;;5055724;28;20075;-74
2022/02/09 22:27:57;;;;;;;25.15;14.70;;;;;;;;;;5054871;28;20036;-74
2022/02/09 22:45:30;;;;;;;30.23;14.50;;;;;;;;;;5055081;28;20067;-74
2022/02/09 22:49:48;;;;;;;24.13;13.23;;;;;;;;;;5052714;28;20497;-76
2022/02/09 22:54:51;;;;;;;22.85;12.75;;;;;;;;;;5053811;28;20391;-75
2022/02/09 22:57:21;;;;;;;19.35;11.23;;;;;;;;;;5053263;28;20028;-76
2022/02/09 22:59:58;;;;;;;16.30;9.70;;;;;;;;;;5054572;28;20033;-74
2022/02/09 23:02:30;;;;;;;21.13;11.77;;;;;;;;;;5054457;28;20059;-76
2022/02/09 23:07:41;;;;;;;27.13;15.05;;;;;;;;;;5054026;28;20143;-74
2022/02/09 23:10:21;;;;;;;21.75;11.77;;;;;;;;;;5054492;28;20033;-74
2022/02/09 23:12:58;;;;;;;27.07;14.40;;;;;;;;;;5069763;28;20473;-73
2022/02/09 23:15:44;;;;;;;17.55;9.52;;;;;;;;;;5053488;28;20071;-75
